createdAt,value
2022-10-09T00:00:49.999Z,98077.84
2022-10-09T00:03:17.345Z,98065.38
2022-10-09T00:05:44.973Z,98075.81
2022-10-09T00:08:11.421Z,98070.91
2022-10-09T00:10:42.474Z,98060.00
2022-10-09T00:13:09.029Z,98065.69
2022-10-09T00:15:39.721Z,98075.84
2022-10-09T00:18:07.519Z,98063.09
2022-10-09T00:20:38.407Z,98068.28
2022-10-09T00:23:05.827Z,98082.28
2022-10-09T00:25:32.968Z,98071.59
2022-10-09T00:28:00.505Z,98082.44
2022-10-09T00:30:27.652Z,98078.06
2022-10-09T00:32:54.592Z,98086.31
2022-10-09T00:35:21.562Z,98083.16
2022-10-09T00:37:48.637Z,98064.94
2022-10-09T00:40:16.220Z,98069.03
2022-10-09T00:42:45.440Z,98069.78
2022-10-09T00:45:20.103Z,98069.06
2022-10-09T00:47:49.413Z,98066.19
2022-10-09T00:50:26.635Z,98079.88
2022-10-09T00:52:56.788Z,98069.22
2022-10-09T00:55:24.978Z,98064.56
2022-10-09T00:57:54.727Z,98067.41
2022-10-09T01:00:21.814Z,98079.34
2022-10-09T01:02:48.655Z,98074.72
2022-10-09T01:05:15.548Z,98059.34
2022-10-09T01:08:02.606Z,98076.88
2022-10-09T01:10:44.237Z,98082.22
2022-10-09T01:13:44.730Z,98071.38
2022-10-09T01:16:24.215Z,98074.97
2022-10-09T01:19:21.381Z,98076.56
2022-10-09T01:22:29.417Z,98065.97
2022-10-09T01:25:11.398Z,98061.56
2022-10-09T01:27:38.724Z,98049.59
2022-10-09T01:30:09.066Z,98041.31
2022-10-09T01:32:39.615Z,98052.53
2022-10-09T01:35:08.621Z,98053.44
2022-10-09T01:37:37.237Z,98042.75
2022-10-09T01:40:05.466Z,98050.59
2022-10-09T01:42:32.583Z,98040.63
2022-10-09T01:44:58.958Z,98048.94
2022-10-09T01:47:25.945Z,98041.44
2022-10-09T01:50:03.989Z,98036.78
2022-10-09T01:52:40.963Z,98047.41
2022-10-09T01:55:16.432Z,98041.50
2022-10-09T01:57:55.048Z,98037.56
2022-10-09T02:00:21.941Z,98026.88
2022-10-09T02:02:50.230Z,98033.31
2022-10-09T02:05:23.347Z,98037.50
2022-10-09T02:07:49.803Z,98035.38
2022-10-09T02:10:18.063Z,98026.59
2022-10-09T02:12:50.871Z,98027.34
2022-10-09T02:15:17.757Z,98009.47
2022-10-09T02:17:48.928Z,98026.88
2022-10-09T02:20:24.815Z,98005.38
2022-10-09T02:22:52.170Z,98016.78
2022-10-09T02:25:18.723Z,98000.88
2022-10-09T02:27:46.879Z,98010.97
2022-10-09T02:30:15.166Z,98023.41
2022-10-09T02:32:41.659Z,98011.22
2022-10-09T02:35:08.589Z,98010.25
2022-10-09T02:37:34.977Z,98007.97
2022-10-09T02:40:01.411Z,98016.78
2022-10-09T02:42:27.778Z,98004.97
2022-10-09T02:44:54.106Z,97995.94
2022-10-09T02:47:20.517Z,97997.47
2022-10-09T02:49:46.875Z,98007.28
2022-10-09T02:52:13.260Z,98005.50
2022-10-09T02:54:39.618Z,97996.16
2022-10-09T02:57:06.053Z,97988.59
2022-10-09T02:59:32.404Z,97985.81
2022-10-09T03:01:58.874Z,97992.25
2022-10-09T03:04:25.336Z,98007.28
2022-10-09T03:06:51.691Z,97992.78
2022-10-09T03:09:18.124Z,97983.41
2022-10-09T03:11:44.496Z,97979.94
2022-10-09T03:14:10.893Z,97996.31
2022-10-09T03:16:37.302Z,97999.69
2022-10-09T03:19:03.826Z,97999.19
2022-10-09T03:21:30.218Z,97980.78
2022-10-09T03:23:56.905Z,98003.50
2022-10-09T03:26:25.479Z,97990.84
2022-10-09T03:28:52.764Z,97996.31
2022-10-09T03:34:07.679Z,97985.75
2022-10-09T03:36:34.078Z,98002.97
2022-10-09T03:39:00.402Z,97996.56
2022-10-09T03:41:26.983Z,97998.84
2022-10-09T03:43:53.314Z,97986.59
2022-10-09T03:46:19.744Z,97990.53
2022-10-09T03:48:46.207Z,98004.72
2022-10-09T03:51:12.548Z,98008.28
2022-10-09T03:53:38.982Z,98000.63
2022-10-09T03:56:05.551Z,97992.31
2022-10-09T03:58:32.003Z,98010.97
2022-10-09T04:00:58.446Z,98000.03
2022-10-09T04:03:27.065Z,97995.56
2022-10-09T04:05:53.411Z,97988.84
2022-10-09T04:08:19.796Z,97999.88
2022-10-09T04:10:46.162Z,98010.34
2022-10-09T04:13:12.572Z,97997.69
2022-10-09T04:15:38.981Z,97989.97
2022-10-09T04:18:05.999Z,97993.00
2022-10-09T04:20:32.598Z,97995.78
2022-10-09T04:22:58.979Z,97993.00
2022-10-09T04:25:25.333Z,97993.16
2022-10-09T04:27:51.722Z,97987.34
2022-10-09T04:30:18.082Z,97999.19
2022-10-09T04:32:44.431Z,97987.00
2022-10-09T04:35:10.796Z,97984.66
2022-10-09T04:37:37.201Z,97996.06
2022-10-09T04:40:04.143Z,97996.50
2022-10-09T04:42:30.879Z,97987.66
2022-10-09T04:44:57.223Z,97976.03
2022-10-09T04:47:23.655Z,97995.09
2022-10-09T04:49:50.018Z,97987.63
2022-10-09T04:52:16.371Z,97983.78
2022-10-09T04:54:42.801Z,97983.28
2022-10-09T04:57:09.160Z,97974.44
2022-10-09T04:59:35.615Z,97980.09
2022-10-09T05:02:02.107Z,97975.19
2022-10-09T05:04:28.560Z,97993.72
2022-10-09T05:06:54.918Z,97990.94
2022-10-09T05:09:21.269Z,97983.56
2022-10-09T05:11:47.602Z,97993.06
2022-10-09T05:14:14.244Z,97981.84
2022-10-09T05:17:08.164Z,97986.31
2022-10-09T05:19:26.959Z,97993.66
2022-10-09T05:21:54.056Z,97981.84
2022-10-09T05:24:20.558Z,97972.91
2022-10-09T05:26:46.936Z,97978.72
2022-10-09T05:29:13.440Z,97990.06
2022-10-09T05:31:39.856Z,97981.84
2022-10-09T05:34:06.302Z,97985.88
2022-10-09T05:36:32.796Z,97997.25
2022-10-09T05:39:01.072Z,97992.38
2022-10-09T05:41:30.979Z,97999.03
2022-10-09T05:44:01.326Z,97985.59
2022-10-09T05:46:29.659Z,97993.06
2022-10-09T05:48:58.472Z,97995.34
2022-10-09T05:51:30.388Z,97996.59
2022-10-09T05:53:57.341Z,97967.94
2022-10-09T05:56:25.361Z,98000.03
2022-10-09T05:58:55.940Z,97994.41
2022-10-09T06:01:24.815Z,97996.78
2022-10-09T06:03:56.872Z,97996.47
2022-10-09T06:06:25.516Z,97985.66
2022-10-09T06:08:52.483Z,97988.78
2022-10-09T06:11:22.366Z,97969.38
2022-10-09T06:13:49.484Z,97966.78
2022-10-09T06:16:16.921Z,97978.00
2022-10-09T06:18:49.248Z,97987.31
2022-10-09T06:21:16.487Z,97988.34
2022-10-09T06:23:43.107Z,97989.41
2022-10-09T06:26:12.387Z,97994.91
2022-10-09T06:28:40.278Z,97980.22
2022-10-09T06:31:16.543Z,97985.66
2022-10-09T06:33:44.536Z,97973.03
2022-10-09T06:36:14.260Z,97982.34
2022-10-09T06:38:41.645Z,97971.03
2022-10-09T06:41:13.340Z,97976.72
2022-10-09T06:43:40.673Z,97973.88
2022-10-09T06:46:09.854Z,97972.59
2022-10-09T06:48:37.839Z,97977.53
2022-10-09T06:51:06.888Z,97983.69
2022-10-09T06:53:37.797Z,97976.47
2022-10-09T06:56:04.720Z,97973.38
2022-10-09T06:58:31.834Z,98000.75
2022-10-09T07:01:04.248Z,97992.13
2022-10-09T07:03:31.129Z,97980.78
2022-10-09T07:06:15.825Z,97995.22
2022-10-09T07:08:43.959Z,97999.22
2022-10-09T07:11:20.833Z,97997.50
2022-10-09T07:13:49.312Z,97996.41
2022-10-09T07:16:20.772Z,97987.59
2022-10-09T07:18:47.678Z,97995.75
2022-10-09T07:21:14.333Z,97989.97
2022-10-09T07:23:40.691Z,97994.25
2022-10-09T07:26:14.007Z,97996.50
2022-10-09T07:28:41.588Z,97991.44
2022-10-09T07:31:08.950Z,98003.84
2022-10-09T07:33:35.584Z,98003.19
2022-10-09T07:36:03.665Z,98000.78
2022-10-09T07:38:30.296Z,98002.59
2022-10-09T07:41:10.372Z,97992.13
2022-10-09T07:43:38.629Z,97996.88
2022-10-09T07:46:07.095Z,97997.72
2022-10-09T07:48:35.120Z,97987.50
2022-10-09T07:51:20.054Z,98005.47
2022-10-09T07:53:46.593Z,97997.84
2022-10-09T07:56:23.946Z,98001.44
2022-10-09T07:58:55.785Z,97990.22
2022-10-09T08:01:23.054Z,97985.22
2022-10-09T08:03:50.415Z,97988.19
2022-10-09T08:06:18.195Z,97991.75
2022-10-09T08:08:45.149Z,97997.19
2022-10-09T08:11:14.093Z,97985.69
2022-10-09T08:13:41.121Z,97989.00
2022-10-09T08:16:07.674Z,97985.19
2022-10-09T08:18:34.438Z,97992.63
2022-10-09T08:21:06.712Z,97976.53
2022-10-09T08:23:33.397Z,97972.19
2022-10-09T08:25:59.785Z,97977.44
2022-10-09T08:28:26.658Z,97979.59
2022-10-09T08:30:53.098Z,97983.94
2022-10-09T08:33:21.879Z,97979.44
2022-10-09T08:35:49.787Z,97977.53
2022-10-09T08:38:37.515Z,97979.47
2022-10-09T08:41:13.855Z,97979.38
2022-10-09T08:43:44.258Z,97966.59
2022-10-09T08:46:25.597Z,97966.84
2022-10-09T08:48:53.857Z,97966.34
2022-10-09T08:51:28.054Z,97980.06
2022-10-09T08:54:19.298Z,97976.22
2022-10-09T08:56:47.539Z,97959.47
2022-10-09T08:59:14.085Z,97975.47
2022-10-09T09:02:04.619Z,97967.66
2022-10-09T09:04:49.012Z,97963.69
2022-10-09T09:07:23.203Z,97954.19
2022-10-09T09:09:59.932Z,97946.84
2022-10-09T09:12:37.448Z,97949.75
2022-10-09T09:15:19.968Z,97933.94
2022-10-09T09:17:54.194Z,97949.91
2022-10-09T09:20:59.940Z,97952.50
2022-10-09T09:23:36.715Z,97950.31
2022-10-09T09:26:04.540Z,97949.25
2022-10-09T09:28:34.800Z,97939.00
2022-10-09T09:31:17.506Z,97948.94
2022-10-09T09:34:04.891Z,97930.25
2022-10-09T09:36:54.795Z,97945.88
2022-10-09T09:42:10.278Z,97934.97
2022-10-09T09:44:42.883Z,97932.56
2022-10-09T09:47:19.976Z,97928.81
2022-10-09T09:49:54.751Z,97913.47
2022-10-09T09:52:21.292Z,97913.66
2022-10-09T09:54:49.064Z,97921.56
2022-10-09T09:57:28.413Z,97920.44
2022-10-09T09:59:54.757Z,97924.09
2022-10-09T10:02:23.791Z,97913.88
2022-10-09T10:04:52.915Z,97919.44
2022-10-09T10:07:36.573Z,97915.97
2022-10-09T10:10:14.260Z,97904.03
2022-10-09T10:12:43.458Z,97902.38
2022-10-09T10:15:24.908Z,97904.03
2022-10-09T10:18:07.102Z,97882.97
2022-10-09T10:20:43.819Z,97894.06
2022-10-09T10:23:42.304Z,97893.22
2022-10-09T10:26:23.043Z,97873.44
2022-10-09T10:28:54.756Z,97892.34
2022-10-09T10:31:39.348Z,97876.22
2022-10-09T10:34:13.640Z,97887.31
2022-10-09T10:36:40.047Z,97883.75
2022-10-09T10:39:20.741Z,97869.66
2022-10-09T10:41:52.675Z,97866.88
2022-10-09T10:44:25.722Z,97879.91
2022-10-09T10:47:01.873Z,97875.94
2022-10-09T10:49:33.479Z,97867.34
2022-10-09T10:52:24.279Z,97855.56
2022-10-09T10:54:53.531Z,97866.53
2022-10-09T10:57:30.720Z,97853.97
2022-10-09T11:00:06.144Z,97846.75
2022-10-09T11:02:56.237Z,97846.81
2022-10-09T11:05:42.791Z,97849.06
2022-10-09T11:08:34.077Z,97853.91
2022-10-09T11:11:12.355Z,97849.88
2022-10-09T11:13:56.079Z,97831.09
2022-10-09T11:16:48.092Z,97840.13
2022-10-09T11:19:23.355Z,97834.63
2022-10-09T11:22:19.673Z,97832.34
2022-10-09T11:25:14.129Z,97830.09
2022-10-09T11:28:02.647Z,97813.00
2022-10-09T11:30:44.792Z,97815.03
2022-10-09T11:33:19.058Z,97822.63
2022-10-09T11:36:02.842Z,97802.38
2022-10-09T11:38:43.603Z,97816.53
2022-10-09T11:41:11.120Z,97793.78
2022-10-09T11:43:44.852Z,97808.75
2022-10-09T11:46:32.181Z,97795.53
2022-10-09T11:49:08.471Z,97800.16
2022-10-09T11:51:34.843Z,97801.69
2022-10-09T11:54:03.567Z,97787.06
2022-10-09T11:56:32.171Z,97788.13
2022-10-09T11:59:04.525Z,97780.78
2022-10-09T12:01:37.687Z,97771.13
2022-10-09T12:04:27.759Z,97779.34
2022-10-09T12:07:09.240Z,97772.44
2022-10-09T12:09:40.022Z,97778.75
2022-10-09T12:12:20.952Z,97774.75
2022-10-09T12:14:50.601Z,97771.69
2022-10-09T12:17:34.155Z,97751.56
2022-10-09T12:20:16.333Z,97746.16
2022-10-09T12:23:01.391Z,97747.16
2022-10-09T12:25:43.938Z,97745.19
2022-10-09T12:28:19.839Z,97742.84
2022-10-09T12:30:49.013Z,97756.25
2022-10-09T12:33:21.128Z,97739.84
2022-10-09T12:35:57.642Z,97732.34
2022-10-09T12:38:33.686Z,97730.94
2022-10-09T12:41:05.236Z,97745.56
2022-10-09T12:43:33.022Z,97744.59
2022-10-09T12:46:00.485Z,97724.78
2022-10-09T12:48:28.652Z,97719.09
2022-10-09T12:50:55.606Z,97715.41
2022-10-09T12:53:26.754Z,97714.53
2022-10-09T12:55:58.488Z,97714.25
2022-10-09T12:58:39.404Z,97711.47
2022-10-09T13:01:11.053Z,97694.56
2022-10-09T13:03:42.901Z,97699.16
2022-10-09T13:06:17.241Z,97690.91
2022-10-09T13:08:44.771Z,97679.22
2022-10-09T13:11:34.523Z,97688.13
2022-10-09T13:14:01.587Z,97676.47
2022-10-09T13:16:43.070Z,97677.84
2022-10-09T13:19:32.560Z,97667.41
2022-10-09T13:22:16.081Z,97661.72
2022-10-09T13:24:42.472Z,97666.34
2022-10-09T13:27:10.312Z,97650.03
2022-10-09T13:29:36.787Z,97660.03
2022-10-09T13:32:03.435Z,97642.81
2022-10-09T13:34:29.932Z,97656.63
2022-10-09T13:36:56.951Z,97657.56
2022-10-09T13:39:23.296Z,97652.34
2022-10-09T13:41:55.765Z,97641.91
2022-10-09T13:44:22.117Z,97645.91
2022-10-09T13:46:48.491Z,97648.66
2022-10-09T13:49:15.198Z,97626.22
2022-10-09T13:51:41.730Z,97634.38
2022-10-09T13:54:08.229Z,97633.91
2022-10-09T13:56:34.680Z,97627.31
2022-10-09T13:59:01.120Z,97636.06
2022-10-09T14:01:27.542Z,97616.88
2022-10-09T14:03:54.184Z,97607.50
2022-10-09T14:06:22.343Z,97624.56
2022-10-09T14:08:49.665Z,97620.41
2022-10-09T14:11:16.451Z,97612.13
2022-10-09T14:13:42.812Z,97604.25
2022-10-09T14:16:11.030Z,97598.91
2022-10-09T14:18:37.382Z,97591.84
2022-10-09T14:21:15.568Z,97589.97
2022-10-09T14:23:42.488Z,97592.28
2022-10-09T14:26:08.868Z,97591.06
2022-10-09T14:28:35.401Z,97586.91
2022-10-09T14:31:05.857Z,97577.53
2022-10-09T14:33:32.283Z,97561.56
2022-10-09T14:36:14.728Z,97566.50
2022-10-09T14:38:42.193Z,97574.16
2022-10-09T14:41:09.184Z,97577.25
2022-10-09T14:43:35.970Z,97568.78
2022-10-09T14:46:06.415Z,97562.63
2022-10-09T14:48:33.616Z,97553.28
2022-10-09T14:51:10.307Z,97527.78
2022-10-09T14:53:36.839Z,97548.06
2022-10-09T14:56:05.895Z,97545.91
2022-10-09T14:58:34.379Z,97544.53
2022-10-09T15:01:01.782Z,97546.06
2022-10-09T15:03:29.500Z,97540.84
2022-10-09T15:06:00.572Z,97531.47
2022-10-09T15:08:29.731Z,97530.09
2022-10-09T15:10:56.223Z,97528.41
2022-10-09T15:13:22.613Z,97531.94
2022-10-09T15:15:48.966Z,97531.94
2022-10-09T15:18:15.459Z,97517.69
2022-10-09T15:20:46.128Z,97523.50
2022-10-09T15:23:13.237Z,97523.19
2022-10-09T15:25:39.839Z,97521.97
2022-10-09T15:28:06.655Z,97512.13
2022-10-09T15:30:33.033Z,97510.75
2022-10-09T15:33:03.087Z,97508.16
2022-10-09T15:35:29.434Z,97505.72
2022-10-09T15:37:55.987Z,97503.41
2022-10-09T15:40:22.394Z,97502.66
2022-10-09T15:42:49.080Z,97498.34
2022-10-09T15:45:15.780Z,97492.97
2022-10-09T15:47:50.974Z,97496.19
2022-10-09T15:50:17.902Z,97494.81
2022-10-09T15:52:44.266Z,97490.09
2022-10-09T15:55:10.624Z,97496.19
2022-10-09T15:57:36.969Z,97494.84
2022-10-09T16:00:04.029Z,97480.72
2022-10-09T16:02:30.395Z,97490.22
2022-10-09T16:04:56.826Z,97488.84
2022-10-09T16:07:23.227Z,97483.78
2022-10-09T16:09:49.691Z,97478.59
2022-10-09T16:12:16.058Z,97480.88
2022-10-09T16:14:42.600Z,97484.09
2022-10-09T16:17:11.347Z,97472.75
2022-10-09T16:19:38.022Z,97473.34
2022-10-09T16:22:05.718Z,97484.84
2022-10-09T16:24:32.598Z,97485.00
2022-10-09T16:26:59.450Z,97472.34
2022-10-09T16:29:26.377Z,97473.56
2022-10-09T16:31:56.397Z,97462.06
2022-10-09T16:34:22.799Z,97469.09
2022-10-09T16:36:49.153Z,97450.34
2022-10-09T16:39:15.569Z,97461.84
2022-10-09T16:41:42.265Z,97468.13
2022-10-09T16:44:12.756Z,97457.16
2022-10-09T16:46:39.108Z,97454.69
2022-10-09T16:49:05.539Z,97465.25
2022-10-09T16:51:34.650Z,97474.50
2022-10-09T16:54:04.189Z,97472.16
2022-10-09T16:56:36.326Z,97467.59
2022-10-09T16:59:06.369Z,97469.88
2022-10-09T17:01:32.915Z,97459.69
2022-10-09T17:04:00.179Z,97458.44
2022-10-09T17:06:27.544Z,97465.66
2022-10-09T17:08:56.060Z,97469.44
2022-10-09T17:11:23.165Z,97471.94
2022-10-09T17:13:49.997Z,97470.06
2022-10-09T17:16:19.194Z,97455.75
2022-10-09T17:18:46.914Z,97445.81
2022-10-09T17:21:14.511Z,97463.97
2022-10-09T17:23:41.231Z,97454.97
2022-10-09T17:26:09.880Z,97454.91
2022-10-09T17:28:36.309Z,97450.47
2022-10-09T17:31:04.943Z,97450.91
2022-10-09T17:33:32.542Z,97458.13
2022-10-09T17:35:59.580Z,97451.66
2022-10-09T17:38:26.077Z,97450.00
2022-10-09T17:40:53.012Z,97468.72
2022-10-09T17:43:19.366Z,97468.66
2022-10-09T17:45:46.846Z,97456.16
2022-10-09T17:48:13.276Z,97451.84
2022-10-09T17:50:39.727Z,97469.03
2022-10-09T17:53:06.387Z,97457.22
2022-10-09T17:55:38.418Z,97452.03
2022-10-09T17:58:04.774Z,97448.94
2022-10-09T18:00:31.132Z,97449.25
2022-10-09T18:02:57.471Z,97453.88
2022-10-09T18:05:23.811Z,97448.00
2022-10-09T18:07:50.393Z,97433.78
2022-10-09T18:10:17.151Z,97439.53
2022-10-09T18:12:43.657Z,97436.16
2022-10-09T18:15:10.814Z,97440.22
2022-10-09T18:17:37.166Z,97432.72
2022-10-09T18:20:04.278Z,97429.16
2022-10-09T18:22:30.807Z,97417.63
2022-10-09T18:24:57.785Z,97423.59
2022-10-09T18:27:24.663Z,97408.69
2022-10-09T18:29:51.027Z,97426.66
2022-10-09T18:32:17.409Z,97418.59
2022-10-09T18:34:46.465Z,97412.44
2022-10-09T18:37:13.172Z,97416.59
2022-10-09T18:39:39.523Z,97416.75
2022-10-09T18:42:05.960Z,97412.44
2022-10-09T18:44:39.974Z,97411.56
2022-10-09T18:47:11.662Z,97409.38
2022-10-09T18:49:43.486Z,97405.41
2022-10-09T18:52:11.044Z,97399.66
2022-10-09T18:54:38.585Z,97406.09
2022-10-09T18:57:05.273Z,97390.91
2022-10-09T18:59:32.398Z,97394.84
2022-10-09T19:01:58.730Z,97389.47
2022-10-09T19:04:25.075Z,97390.44
2022-10-09T19:06:54.176Z,97393.03
2022-10-09T19:09:20.796Z,97400.13
2022-10-09T19:11:47.149Z,97395.72
2022-10-09T19:14:15.665Z,97387.34
2022-10-09T19:16:42.089Z,97403.03
2022-10-09T19:19:08.493Z,97401.84
2022-10-09T19:21:36.236Z,97400.81
2022-10-09T19:24:05.984Z,97393.03
2022-10-09T19:26:33.151Z,97388.72
2022-10-09T19:29:00.050Z,97389.84
2022-10-09T19:31:26.555Z,97390.63
2022-10-09T19:33:53.234Z,97397.63
2022-10-09T19:36:19.679Z,97377.56
2022-10-09T19:38:46.144Z,97379.09
2022-10-09T19:41:15.300Z,97391.09
2022-10-09T19:43:41.975Z,97390.34
2022-10-09T19:46:17.643Z,97364.13
2022-10-09T19:48:45.034Z,97384.66
2022-10-09T19:51:14.648Z,97389.38
2022-10-09T19:53:43.435Z,97381.31
2022-10-09T19:56:21.408Z,97385.44
2022-10-09T19:58:49.029Z,97376.69
2022-10-09T20:01:19.433Z,97387.53
2022-10-09T20:03:46.804Z,97386.94
2022-10-09T20:06:14.140Z,97378.59
2022-10-09T20:08:42.188Z,97373.88
2022-10-09T20:11:11.387Z,97379.16
2022-10-09T20:13:39.551Z,97373.09
2022-10-09T20:16:11.420Z,97386.75
2022-10-09T20:18:42.327Z,97371.97
2022-10-09T20:21:14.375Z,97374.38
2022-10-09T20:23:41.258Z,97372.38
2022-10-09T20:26:11.493Z,97377.66
2022-10-09T20:28:38.109Z,97365.44
2022-10-09T20:31:07.849Z,97384.38
2022-10-09T20:33:35.864Z,97379.00
2022-10-09T20:36:03.827Z,97376.47
2022-10-09T20:38:30.360Z,97373.88
2022-10-09T20:41:04.531Z,97364.59
2022-10-09T20:43:30.859Z,97367.66
2022-10-09T20:45:57.208Z,97371.59
2022-10-09T20:48:23.596Z,97373.63
2022-10-09T20:50:50.002Z,97382.66
2022-10-09T20:53:16.800Z,97374.28
2022-10-09T20:55:43.180Z,97372.38
2022-10-09T20:58:09.511Z,97367.66
2022-10-09T21:00:41.513Z,97362.94
2022-10-09T21:03:12.195Z,97370.72
2022-10-09T21:05:42.930Z,97357.94
2022-10-09T21:08:09.920Z,97366.31
2022-10-09T21:10:43.019Z,97356.22
2022-10-09T21:13:09.547Z,97353.06
2022-10-09T21:15:43.553Z,97349.00
2022-10-09T21:18:10.892Z,97347.88
2022-10-09T21:20:42.403Z,97361.00
2022-10-09T21:23:10.617Z,97361.78
2022-10-09T21:25:37.485Z,97366.38
2022-10-09T21:28:05.359Z,97355.72
2022-10-09T21:30:41.241Z,97362.16
2022-10-09T21:33:08.379Z,97354.38
2022-10-09T21:35:39.369Z,97350.06
2022-10-09T21:38:05.872Z,97329.41
2022-10-09T21:40:32.265Z,97345.72
2022-10-09T21:42:58.857Z,97337.13
2022-10-09T21:45:25.224Z,97340.38
2022-10-09T21:47:51.560Z,97328.44
2022-10-09T21:50:17.959Z,97321.25
2022-10-09T21:52:44.295Z,97326.16
2022-10-09T21:55:10.657Z,97341.81
2022-10-09T21:57:37.000Z,97327.41
2022-10-09T22:00:04.682Z,97335.38
2022-10-09T22:02:31.170Z,97326.91
2022-10-09T22:04:57.541Z,97341.13
2022-10-09T22:07:26.232Z,97323.25
2022-10-09T22:09:53.120Z,97330.00
2022-10-09T22:12:19.797Z,97329.59
2022-10-09T22:14:46.330Z,97326.53
2022-10-09T22:17:12.756Z,97328.53
2022-10-09T22:19:39.142Z,97312.56
2022-10-09T22:22:05.765Z,97311.56
2022-10-09T22:24:32.125Z,97315.91
2022-10-09T22:26:58.918Z,97295.44
2022-10-09T22:29:26.061Z,97310.88
2022-10-09T22:31:52.593Z,97299.25
2022-10-09T22:34:19.234Z,97297.22
2022-10-09T22:36:46.519Z,97306.06
2022-10-09T22:39:13.009Z,97296.03
2022-10-09T22:41:40.346Z,97300.00
2022-10-09T22:44:08.317Z,97294.91
2022-10-09T22:46:40.350Z,97291.13
2022-10-09T22:49:07.901Z,97294.25
2022-10-09T22:51:34.911Z,97297.84
2022-10-09T22:54:01.651Z,97290.13
2022-10-09T22:56:37.419Z,97298.59
2022-10-09T22:59:04.912Z,97288.72
2022-10-09T23:01:42.523Z,97300.22
2022-10-09T23:04:12.717Z,97294.63
2022-10-09T23:06:40.176Z,97288.19
2022-10-09T23:09:08.860Z,97294.91
2022-10-09T23:11:35.948Z,97280.09
2022-10-09T23:14:02.980Z,97290.69
2022-10-09T23:16:30.747Z,97268.78
2022-10-09T23:18:58.057Z,97282.13
2022-10-09T23:21:24.971Z,97282.41
2022-10-09T23:23:52.451Z,97285.06
2022-10-09T23:26:28.254Z,97285.84
2022-10-09T23:28:57.642Z,97273.06
2022-10-09T23:31:25.341Z,97275.00
2022-10-09T23:33:51.871Z,97262.59
2022-10-09T23:36:20.495Z,97275.66
2022-10-09T23:38:47.793Z,97272.09
2022-10-09T23:41:17.403Z,97275.91
2022-10-09T23:43:45.452Z,97261.13
2022-10-09T23:46:14.749Z,97272.16
2022-10-09T23:48:42.136Z,97269.22
2022-10-09T23:51:09.164Z,97270.63
2022-10-09T23:53:35.878Z,97270.91
2022-10-09T23:56:25.548Z,97268.63
2022-10-09T23:58:53.386Z,97255.06
